sensor_id;sensor_type;location;lat;lon;timestamp;P1;durP1;ratioP1;P2;durP2;ratioP2
70301;SDS011;57706;56.326;43.882;2022-10-16T00:01:41;21.75;;;12.30;;
70301;SDS011;57706;56.326;43.882;2022-10-16T00:04:06;21.55;;;12.07;;
70301;SDS011;57706;56.326;43.882;2022-10-16T00:06:52;22.75;;;12.65;;
70301;SDS011;57706;56.326;43.882;2022-10-16T00:09:17;19.77;;;11.00;;
70301;SDS011;57706;56.326;43.882;2022-10-16T00:11:43;25.35;;;11.70;;
70301;SDS011;57706;56.326;43.882;2022-10-16T00:14:10;23.20;;;12.05;;
70301;SDS011;57706;56.326;43.882;2022-10-16T00:16:39;22.50;;;13.30;;
70301;SDS011;57706;56.326;43.882;2022-10-16T00:19:05;25.40;;;12.10;;
70301;SDS011;57706;56.326;43.882;2022-10-16T00:21:31;19.00;;;11.07;;
70301;SDS011;57706;56.326;43.882;2022-10-16T00:24:15;20.08;;;11.30;;
70301;SDS011;57706;56.326;43.882;2022-10-16T00:27:00;20.33;;;10.82;;
70301;SDS011;57706;56.326;43.882;2022-10-16T00:29:26;21.10;;;10.85;;
70301;SDS011;57706;56.326;43.882;2022-10-16T00:31:52;20.55;;;11.93;;
70301;SDS011;57706;56.326;43.882;2022-10-16T00:34:18;23.67;;;11.60;;
70301;SDS011;57706;56.326;43.882;2022-10-16T00:36:44;20.17;;;11.13;;
70301;SDS011;57706;56.326;43.882;2022-10-16T00:39:09;22.20;;;11.25;;
70301;SDS011;57706;56.326;43.882;2022-10-16T00:41:35;20.63;;;10.77;;
70301;SDS011;57706;56.326;43.882;2022-10-16T00:44:02;26.98;;;11.60;;
70301;SDS011;57706;56.326;43.882;2022-10-16T00:47:09;19.58;;;10.98;;
70301;SDS011;57706;56.326;43.882;2022-10-16T00:49:37;22.35;;;11.32;;
70301;SDS011;57706;56.326;43.882;2022-10-16T00:52:04;28.33;;;12.07;;
70301;SDS011;57706;56.326;43.882;2022-10-16T00:54:31;21.30;;;12.73;;
70301;SDS011;57706;56.326;43.882;2022-10-16T00:57:01;20.88;;;11.25;;
70301;SDS011;57706;56.326;43.882;2022-10-16T00:59:34;19.75;;;11.50;;
70301;SDS011;57706;56.326;43.882;2022-10-16T01:02:02;22.05;;;11.82;;
70301;SDS011;57706;56.326;43.882;2022-10-16T01:04:32;26.30;;;13.13;;
70301;SDS011;57706;56.326;43.882;2022-10-16T01:13:07;20.48;;;13.02;;
70301;SDS011;57706;56.326;43.882;2022-10-16T01:18:30;26.15;;;11.27;;
70301;SDS011;57706;56.326;43.882;2022-10-16T01:21:02;17.35;;;10.60;;
70301;SDS011;57706;56.326;43.882;2022-10-16T01:23:51;21.08;;;11.10;;
70301;SDS011;57706;56.326;43.882;2022-10-16T01:26:36;20.45;;;11.88;;
70301;SDS011;57706;56.326;43.882;2022-10-16T01:31:32;23.48;;;11.95;;
70301;SDS011;57706;56.326;43.882;2022-10-16T01:34:21;18.48;;;12.07;;
70301;SDS011;57706;56.326;43.882;2022-10-16T01:36:59;21.95;;;10.75;;
70301;SDS011;57706;56.326;43.882;2022-10-16T01:39:32;20.90;;;10.73;;
70301;SDS011;57706;56.326;43.882;2022-10-16T01:42:04;22.50;;;10.43;;
70301;SDS011;57706;56.326;43.882;2022-10-16T01:44:36;26.30;;;10.60;;
70301;SDS011;57706;56.326;43.882;2022-10-16T01:47:04;18.90;;;11.65;;
70301;SDS011;57706;56.326;43.882;2022-10-16T01:49:34;19.55;;;10.32;;
70301;SDS011;57706;56.326;43.882;2022-10-16T01:52:04;18.15;;;10.82;;
70301;SDS011;57706;56.326;43.882;2022-10-16T01:57:01;18.58;;;11.45;;
70301;SDS011;57706;56.326;43.882;2022-10-16T01:59:36;24.17;;;10.40;;
70301;SDS011;57706;56.326;43.882;2022-10-16T02:02:07;20.13;;;9.98;;
70301;SDS011;57706;56.326;43.882;2022-10-16T02:04:40;18.80;;;10.48;;
70301;SDS011;57706;56.326;43.882;2022-10-16T02:07:09;18.50;;;11.45;;
70301;SDS011;57706;56.326;43.882;2022-10-16T02:09:36;17.45;;;9.85;;
70301;SDS011;57706;56.326;43.882;2022-10-16T02:12:13;19.42;;;10.55;;
70301;SDS011;57706;56.326;43.882;2022-10-16T02:14:52;17.65;;;11.32;;
70301;SDS011;57706;56.326;43.882;2022-10-16T02:17:18;20.20;;;11.20;;
70301;SDS011;57706;56.326;43.882;2022-10-16T02:19:46;23.15;;;9.85;;
70301;SDS011;57706;56.326;43.882;2022-10-16T02:22:16;18.13;;;9.80;;
70301;SDS011;57706;56.326;43.882;2022-10-16T02:30:17;18.77;;;10.52;;
70301;SDS011;57706;56.326;43.882;2022-10-16T02:33:07;23.55;;;12.00;;
70301;SDS011;57706;56.326;43.882;2022-10-16T02:35:54;18.23;;;10.63;;
70301;SDS011;57706;56.326;43.882;2022-10-16T02:38:21;22.27;;;15.52;;
70301;SDS011;57706;56.326;43.882;2022-10-16T02:41:07;27.85;;;14.10;;
70301;SDS011;57706;56.326;43.882;2022-10-16T02:43:34;25.40;;;15.50;;
70301;SDS011;57706;56.326;43.882;2022-10-16T02:46:00;29.17;;;17.27;;
70301;SDS011;57706;56.326;43.882;2022-10-16T02:48:26;26.83;;;15.73;;
70301;SDS011;57706;56.326;43.882;2022-10-16T02:50:51;28.88;;;16.48;;
70301;SDS011;57706;56.326;43.882;2022-10-16T02:53:36;26.63;;;15.50;;
70301;SDS011;57706;56.326;43.882;2022-10-16T02:56:02;29.73;;;17.27;;
70301;SDS011;57706;56.326;43.882;2022-10-16T02:58:27;32.28;;;15.93;;
70301;SDS011;57706;56.326;43.882;2022-10-16T03:00:54;26.77;;;14.45;;
70301;SDS011;57706;56.326;43.882;2022-10-16T03:03:38;25.40;;;13.10;;
70301;SDS011;57706;56.326;43.882;2022-10-16T03:06:04;20.50;;;12.10;;
70301;SDS011;57706;56.326;43.882;2022-10-16T03:08:31;26.85;;;11.90;;
70301;SDS011;57706;56.326;43.882;2022-10-16T03:10:57;24.15;;;13.60;;
70301;SDS011;57706;56.326;43.882;2022-10-16T03:13:22;22.10;;;13.60;;
70301;SDS011;57706;56.326;43.882;2022-10-16T03:15:48;26.50;;;13.52;;
70301;SDS011;57706;56.326;43.882;2022-10-16T03:18:32;26.70;;;13.93;;
70301;SDS011;57706;56.326;43.882;2022-10-16T03:20:58;24.45;;;13.52;;
70301;SDS011;57706;56.326;43.882;2022-10-16T03:23:24;24.42;;;13.20;;
70301;SDS011;57706;56.326;43.882;2022-10-16T03:25:50;22.02;;;13.07;;
70301;SDS011;57706;56.326;43.882;2022-10-16T03:28:15;22.08;;;13.00;;
70301;SDS011;57706;56.326;43.882;2022-10-16T03:30:42;22.10;;;11.07;;
70301;SDS011;57706;56.326;43.882;2022-10-16T03:33:08;17.77;;;10.32;;
70301;SDS011;57706;56.326;43.882;2022-10-16T03:35:34;18.27;;;10.43;;
70301;SDS011;57706;56.326;43.882;2022-10-16T03:38:00;22.17;;;10.93;;
70301;SDS011;57706;56.326;43.882;2022-10-16T03:40:26;21.42;;;10.18;;
70301;SDS011;57706;56.326;43.882;2022-10-16T03:42:51;20.58;;;12.07;;
70301;SDS011;57706;56.326;43.882;2022-10-16T03:45:19;18.08;;;11.15;;
70301;SDS011;57706;56.326;43.882;2022-10-16T03:47:45;23.45;;;10.27;;
70301;SDS011;57706;56.326;43.882;2022-10-16T03:50:11;26.33;;;11.02;;
70301;SDS011;57706;56.326;43.882;2022-10-16T03:52:36;18.38;;;10.60;;
70301;SDS011;57706;56.326;43.882;2022-10-16T03:55:02;18.50;;;10.30;;
70301;SDS011;57706;56.326;43.882;2022-10-16T03:57:28;18.00;;;11.25;;
70301;SDS011;57706;56.326;43.882;2022-10-16T03:59:54;19.90;;;11.57;;
70301;SDS011;57706;56.326;43.882;2022-10-16T04:02:20;17.88;;;10.85;;
70301;SDS011;57706;56.326;43.882;2022-10-16T04:04:46;22.55;;;11.52;;
70301;SDS011;57706;56.326;43.882;2022-10-16T04:07:11;19.17;;;10.23;;
70301;SDS011;57706;56.326;43.882;2022-10-16T04:09:37;21.55;;;12.05;;
70301;SDS011;57706;56.326;43.882;2022-10-16T04:12:03;22.92;;;12.02;;
70301;SDS011;57706;56.326;43.882;2022-10-16T04:14:29;19.08;;;11.45;;
70301;SDS011;57706;56.326;43.882;2022-10-16T04:17:13;24.70;;;11.50;;
70301;SDS011;57706;56.326;43.882;2022-10-16T04:19:39;22.92;;;10.73;;
70301;SDS011;57706;56.326;43.882;2022-10-16T04:22:04;22.55;;;11.55;;
70301;SDS011;57706;56.326;43.882;2022-10-16T04:24:30;25.40;;;13.50;;
70301;SDS011;57706;56.326;43.882;2022-10-16T04:26:56;29.20;;;13.63;;
70301;SDS011;57706;56.326;43.882;2022-10-16T04:29:22;29.92;;;14.43;;
70301;SDS011;57706;56.326;43.882;2022-10-16T04:31:48;27.67;;;12.70;;
70301;SDS011;57706;56.326;43.882;2022-10-16T04:34:13;26.80;;;12.15;;
70301;SDS011;57706;56.326;43.882;2022-10-16T04:36:58;22.88;;;13.13;;
70301;SDS011;57706;56.326;43.882;2022-10-16T04:39:24;36.00;;;14.43;;
70301;SDS011;57706;56.326;43.882;2022-10-16T04:41:49;30.98;;;13.32;;
70301;SDS011;57706;56.326;43.882;2022-10-16T04:44:15;25.30;;;12.00;;
70301;SDS011;57706;56.326;43.882;2022-10-16T04:46:41;35.22;;;11.80;;
70301;SDS011;57706;56.326;43.882;2022-10-16T04:49:07;27.10;;;11.35;;
70301;SDS011;57706;56.326;43.882;2022-10-16T04:51:32;24.42;;;11.77;;
70301;SDS011;57706;56.326;43.882;2022-10-16T04:53:59;28.10;;;12.90;;
70301;SDS011;57706;56.326;43.882;2022-10-16T04:56:24;29.80;;;12.73;;
70301;SDS011;57706;56.326;43.882;2022-10-16T04:58:50;26.73;;;12.40;;
70301;SDS011;57706;56.326;43.882;2022-10-16T05:01:16;29.50;;;13.10;;
70301;SDS011;57706;56.326;43.882;2022-10-16T05:03:42;31.48;;;12.23;;
70301;SDS011;57706;56.326;43.882;2022-10-16T05:06:07;23.52;;;11.75;;
70301;SDS011;57706;56.326;43.882;2022-10-16T05:08:33;25.63;;;12.05;;
70301;SDS011;57706;56.326;43.882;2022-10-16T05:10:59;23.90;;;11.68;;
70301;SDS011;57706;56.326;43.882;2022-10-16T05:13:25;22.40;;;11.13;;
70301;SDS011;57706;56.326;43.882;2022-10-16T05:15:51;25.83;;;12.10;;
70301;SDS011;57706;56.326;43.882;2022-10-16T05:18:17;21.83;;;11.73;;
70301;SDS011;57706;56.326;43.882;2022-10-16T05:20:43;20.75;;;10.05;;
70301;SDS011;57706;56.326;43.882;2022-10-16T05:23:09;18.38;;;9.48;;
70301;SDS011;57706;56.326;43.882;2022-10-16T05:25:37;24.15;;;9.80;;
70301;SDS011;57706;56.326;43.882;2022-10-16T05:28:03;23.40;;;11.38;;
70301;SDS011;57706;56.326;43.882;2022-10-16T05:30:29;26.98;;;10.38;;
70301;SDS011;57706;56.326;43.882;2022-10-16T05:32:55;28.75;;;10.20;;
70301;SDS011;57706;56.326;43.882;2022-10-16T05:35:21;27.27;;;10.18;;
70301;SDS011;57706;56.326;43.882;2022-10-16T05:37:47;19.02;;;9.77;;
70301;SDS011;57706;56.326;43.882;2022-10-16T05:40:13;31.52;;;10.30;;
70301;SDS011;57706;56.326;43.882;2022-10-16T05:42:39;30.85;;;12.35;;
70301;SDS011;57706;56.326;43.882;2022-10-16T05:45:06;20.38;;;10.32;;
70301;SDS011;57706;56.326;43.882;2022-10-16T05:47:33;16.52;;;10.30;;
70301;SDS011;57706;56.326;43.882;2022-10-16T05:49:59;18.88;;;10.20;;
70301;SDS011;57706;56.326;43.882;2022-10-16T05:52:26;17.83;;;9.15;;
70301;SDS011;57706;56.326;43.882;2022-10-16T05:54:52;18.95;;;10.57;;
70301;SDS011;57706;56.326;43.882;2022-10-16T05:57:18;22.10;;;8.88;;
70301;SDS011;57706;56.326;43.882;2022-10-16T05:59:44;18.08;;;9.50;;
70301;SDS011;57706;56.326;43.882;2022-10-16T06:02:12;15.15;;;9.18;;
70301;SDS011;57706;56.326;43.882;2022-10-16T06:04:38;22.98;;;9.43;;
70301;SDS011;57706;56.326;43.882;2022-10-16T06:07:04;18.73;;;9.18;;
70301;SDS011;57706;56.326;43.882;2022-10-16T06:09:30;18.77;;;9.82;;
70301;SDS011;57706;56.326;43.882;2022-10-16T06:11:56;23.85;;;9.63;;
70301;SDS011;57706;56.326;43.882;2022-10-16T06:14:40;19.98;;;9.88;;
70301;SDS011;57706;56.326;43.882;2022-10-16T06:17:06;23.27;;;10.02;;
70301;SDS011;57706;56.326;43.882;2022-10-16T06:19:32;20.70;;;9.85;;
70301;SDS011;57706;56.326;43.882;2022-10-16T06:21:58;26.17;;;11.30;;
70301;SDS011;57706;56.326;43.882;2022-10-16T06:24:24;17.45;;;10.48;;
70301;SDS011;57706;56.326;43.882;2022-10-16T06:26:50;20.73;;;10.95;;
70301;SDS011;57706;56.326;43.882;2022-10-16T06:29:34;21.60;;;10.80;;
70301;SDS011;57706;56.326;43.882;2022-10-16T06:32:00;18.70;;;11.20;;
70301;SDS011;57706;56.326;43.882;2022-10-16T06:34:26;28.73;;;13.23;;
70301;SDS011;57706;56.326;43.882;2022-10-16T06:37:10;23.15;;;11.80;;
70301;SDS011;57706;56.326;43.882;2022-10-16T06:39:36;22.20;;;10.88;;
70301;SDS011;57706;56.326;43.882;2022-10-16T06:42:02;22.67;;;11.50;;
70301;SDS011;57706;56.326;43.882;2022-10-16T06:44:34;23.48;;;10.95;;
70301;SDS011;57706;56.326;43.882;2022-10-16T06:47:00;22.13;;;11.45;;
70301;SDS011;57706;56.326;43.882;2022-10-16T06:49:26;22.30;;;12.02;;
70301;SDS011;57706;56.326;43.882;2022-10-16T06:52:12;21.27;;;11.15;;
70301;SDS011;57706;56.326;43.882;2022-10-16T06:54:38;19.73;;;10.73;;
70301;SDS011;57706;56.326;43.882;2022-10-16T06:57:04;19.45;;;11.65;;
70301;SDS011;57706;56.326;43.882;2022-10-16T06:59:30;22.17;;;11.65;;
70301;SDS011;57706;56.326;43.882;2022-10-16T07:01:55;24.83;;;12.00;;
70301;SDS011;57706;56.326;43.882;2022-10-16T07:04:21;22.20;;;11.50;;
70301;SDS011;57706;56.326;43.882;2022-10-16T07:06:47;22.38;;;11.60;;
70301;SDS011;57706;56.326;43.882;2022-10-16T07:09:13;30.17;;;12.20;;
70301;SDS011;57706;56.326;43.882;2022-10-16T07:11:39;22.00;;;11.63;;
70301;SDS011;57706;56.326;43.882;2022-10-16T07:14:12;22.33;;;11.70;;
70301;SDS011;57706;56.326;43.882;2022-10-16T07:16:44;19.05;;;11.93;;
70301;SDS011;57706;56.326;43.882;2022-10-16T07:19:09;20.60;;;10.93;;
70301;SDS011;57706;56.326;43.882;2022-10-16T07:21:55;23.02;;;11.60;;
70301;SDS011;57706;56.326;43.882;2022-10-16T07:24:22;23.42;;;11.63;;
70301;SDS011;57706;56.326;43.882;2022-10-16T07:26:48;22.08;;;12.95;;
70301;SDS011;57706;56.326;43.882;2022-10-16T07:29:18;25.90;;;14.65;;
70301;SDS011;57706;56.326;43.882;2022-10-16T07:31:45;22.08;;;12.23;;
70301;SDS011;57706;56.326;43.882;2022-10-16T07:34:12;23.50;;;11.75;;
70301;SDS011;57706;56.326;43.882;2022-10-16T07:36:39;21.25;;;12.13;;
70301;SDS011;57706;56.326;43.882;2022-10-16T07:39:05;21.38;;;12.25;;
70301;SDS011;57706;56.326;43.882;2022-10-16T07:41:31;19.85;;;11.65;;
70301;SDS011;57706;56.326;43.882;2022-10-16T07:43:58;19.67;;;11.50;;
70301;SDS011;57706;56.326;43.882;2022-10-16T07:46:27;18.48;;;11.18;;
70301;SDS011;57706;56.326;43.882;2022-10-16T07:48:54;18.90;;;12.00;;
70301;SDS011;57706;56.326;43.882;2022-10-16T07:51:23;20.83;;;11.43;;
70301;SDS011;57706;56.326;43.882;2022-10-16T07:53:51;19.70;;;12.18;;
70301;SDS011;57706;56.326;43.882;2022-10-16T07:56:18;20.20;;;13.32;;
70301;SDS011;57706;56.326;43.882;2022-10-16T07:58:44;19.42;;;12.98;;
70301;SDS011;57706;56.326;43.882;2022-10-16T08:01:11;26.52;;;13.07;;
70301;SDS011;57706;56.326;43.882;2022-10-16T08:03:41;21.13;;;13.23;;
70301;SDS011;57706;56.326;43.882;2022-10-16T08:06:08;20.65;;;13.18;;
70301;SDS011;57706;56.326;43.882;2022-10-16T08:08:52;18.65;;;10.80;;
70301;SDS011;57706;56.326;43.882;2022-10-16T08:11:18;21.75;;;10.82;;
70301;SDS011;57706;56.326;43.882;2022-10-16T08:13:44;18.23;;;11.05;;
70301;SDS011;57706;56.326;43.882;2022-10-16T08:16:10;14.55;;;10.35;;
70301;SDS011;57706;56.326;43.882;2022-10-16T08:18:37;18.08;;;10.52;;
70301;SDS011;57706;56.326;43.882;2022-10-16T08:21:04;14.50;;;10.25;;
70301;SDS011;57706;56.326;43.882;2022-10-16T08:23:31;17.23;;;10.25;;
70301;SDS011;57706;56.326;43.882;2022-10-16T08:26:01;18.85;;;10.10;;
70301;SDS011;57706;56.326;43.882;2022-10-16T08:28:31;21.08;;;11.27;;
70301;SDS011;57706;56.326;43.882;2022-10-16T08:31:05;17.83;;;11.40;;
70301;SDS011;57706;56.326;43.882;2022-10-16T08:33:59;24.40;;;11.43;;
70301;SDS011;57706;56.326;43.882;2022-10-16T08:36:25;18.85;;;12.15;;
70301;SDS011;57706;56.326;43.882;2022-10-16T08:38:51;21.05;;;11.27;;
70301;SDS011;57706;56.326;43.882;2022-10-16T08:47:05;20.95;;;12.20;;
70301;SDS011;57706;56.326;43.882;2022-10-16T08:49:40;18.05;;;11.10;;
70301;SDS011;57706;56.326;43.882;2022-10-16T08:52:10;17.90;;;11.35;;
70301;SDS011;57706;56.326;43.882;2022-10-16T08:54:41;23.75;;;11.90;;
70301;SDS011;57706;56.326;43.882;2022-10-16T08:57:13;22.30;;;11.98;;
70301;SDS011;57706;56.326;43.882;2022-10-16T08:59:42;19.05;;;11.75;;
70301;SDS011;57706;56.326;43.882;2022-10-16T09:16:18;18.75;;;12.07;;
70301;SDS011;57706;56.326;43.882;2022-10-16T09:18:56;20.27;;;12.15;;
70301;SDS011;57706;56.326;43.882;2022-10-16T09:21:35;21.38;;;12.77;;
70301;SDS011;57706;56.326;43.882;2022-10-16T09:24:09;19.80;;;12.27;;
70301;SDS011;57706;56.326;43.882;2022-10-16T09:26:40;19.23;;;11.90;;
70301;SDS011;57706;56.326;43.882;2022-10-16T09:29:06;21.17;;;11.73;;
70301;SDS011;57706;56.326;43.882;2022-10-16T09:31:31;21.75;;;11.55;;
70301;SDS011;57706;56.326;43.882;2022-10-16T09:34:02;16.98;;;12.52;;
70301;SDS011;57706;56.326;43.882;2022-10-16T09:36:50;18.48;;;11.43;;
70301;SDS011;57706;56.326;43.882;2022-10-16T09:39:16;19.02;;;11.65;;
70301;SDS011;57706;56.326;43.882;2022-10-16T09:41:43;18.73;;;10.70;;
70301;SDS011;57706;56.326;43.882;2022-10-16T09:44:27;15.82;;;10.70;;
70301;SDS011;57706;56.326;43.882;2022-10-16T09:47:05;16.60;;;9.10;;
70301;SDS011;57706;56.326;43.882;2022-10-16T09:52:29;11.88;;;9.27;;
70301;SDS011;57706;56.326;43.882;2022-10-16T09:54:56;15.05;;;10.90;;
70301;SDS011;57706;56.326;43.882;2022-10-16T09:57:23;13.25;;;10.05;;
70301;SDS011;57706;56.326;43.882;2022-10-16T09:59:53;14.05;;;9.13;;
70301;SDS011;57706;56.326;43.882;2022-10-16T10:02:31;19.63;;;8.65;;
70301;SDS011;57706;56.326;43.882;2022-10-16T10:05:01;18.05;;;9.52;;
70301;SDS011;57706;56.326;43.882;2022-10-16T10:07:30;13.50;;;9.95;;
70301;SDS011;57706;56.326;43.882;2022-10-16T10:10:00;14.00;;;9.68;;
70301;SDS011;57706;56.326;43.882;2022-10-16T10:12:28;11.20;;;7.60;;
70301;SDS011;57706;56.326;43.882;2022-10-16T10:15:06;9.90;;;6.78;;
70301;SDS011;57706;56.326;43.882;2022-10-16T10:17:44;11.02;;;7.15;;
70301;SDS011;57706;56.326;43.882;2022-10-16T10:20:15;13.43;;;7.38;;
70301;SDS011;57706;56.326;43.882;2022-10-16T10:22:47;10.13;;;7.35;;
70301;SDS011;57706;56.326;43.882;2022-10-16T10:35:51;9.85;;;6.85;;
70301;SDS011;57706;56.326;43.882;2022-10-16T10:38:29;11.82;;;5.88;;
70301;SDS011;57706;56.326;43.882;2022-10-16T10:41:15;13.73;;;6.57;;
70301;SDS011;57706;56.326;43.882;2022-10-16T11:06:30;15.43;;;6.85;;
70301;SDS011;57706;56.326;43.882;2022-10-16T11:09:15;11.73;;;6.93;;
70301;SDS011;57706;56.326;43.882;2022-10-16T11:11:53;10.93;;;7.03;;
70301;SDS011;57706;56.326;43.882;2022-10-16T11:14:41;12.20;;;6.93;;
70301;SDS011;57706;56.326;43.882;2022-10-16T11:17:22;12.73;;;6.82;;
70301;SDS011;57706;56.326;43.882;2022-10-16T11:19:57;11.27;;;6.85;;
70301;SDS011;57706;56.326;43.882;2022-10-16T11:30:02;11.23;;;6.78;;
70301;SDS011;57706;56.326;43.882;2022-10-16T11:32:32;10.93;;;6.63;;
70301;SDS011;57706;56.326;43.882;2022-10-16T11:35:08;10.85;;;6.70;;
70301;SDS011;57706;56.326;43.882;2022-10-16T11:37:41;13.57;;;7.22;;
70301;SDS011;57706;56.326;43.882;2022-10-16T11:40:19;17.05;;;8.43;;
70301;SDS011;57706;56.326;43.882;2022-10-16T11:42:54;14.60;;;7.95;;
70301;SDS011;57706;56.326;43.882;2022-10-16T11:45:33;13.00;;;7.78;;
70301;SDS011;57706;56.326;43.882;2022-10-16T11:48:26;12.27;;;7.63;;
70301;SDS011;57706;56.326;43.882;2022-10-16T11:51:11;13.10;;;7.72;;
70301;SDS011;57706;56.326;43.882;2022-10-16T11:56:18;15.80;;;7.55;;
70301;SDS011;57706;56.326;43.882;2022-10-16T11:58:53;13.85;;;7.90;;
70301;SDS011;57706;56.326;43.882;2022-10-16T12:01:41;12.43;;;7.10;;
70301;SDS011;57706;56.326;43.882;2022-10-16T12:04:33;13.82;;;7.18;;
70301;SDS011;57706;56.326;43.882;2022-10-16T12:07:14;13.73;;;7.32;;
70301;SDS011;57706;56.326;43.882;2022-10-16T12:09:47;13.40;;;6.60;;
70301;SDS011;57706;56.326;43.882;2022-10-16T12:17:36;15.68;;;7.30;;
70301;SDS011;57706;56.326;43.882;2022-10-16T12:22:48;14.27;;;8.40;;
70301;SDS011;57706;56.326;43.882;2022-10-16T12:27:54;22.38;;;16.35;;
70301;SDS011;57706;56.326;43.882;2022-10-16T12:30:43;29.48;;;19.45;;
70301;SDS011;57706;56.326;43.882;2022-10-16T12:33:23;30.90;;;20.65;;
70301;SDS011;57706;56.326;43.882;2022-10-16T12:35:54;27.27;;;15.63;;
70301;SDS011;57706;56.326;43.882;2022-10-16T12:38:30;21.95;;;12.40;;
70301;SDS011;57706;56.326;43.882;2022-10-16T12:41:05;15.75;;;9.73;;
70301;SDS011;57706;56.326;43.882;2022-10-16T12:43:59;16.13;;;9.57;;
70301;SDS011;57706;56.326;43.882;2022-10-16T12:49:04;14.85;;;8.20;;
70301;SDS011;57706;56.326;43.882;2022-10-16T12:51:50;12.65;;;7.07;;
70301;SDS011;57706;56.326;43.882;2022-10-16T12:54:18;10.45;;;6.68;;
70301;SDS011;57706;56.326;43.882;2022-10-16T13:07:42;12.32;;;6.10;;
70301;SDS011;57706;56.326;43.882;2022-10-16T13:23:47;11.43;;;5.93;;
70301;SDS011;57706;56.326;43.882;2022-10-16T13:26:23;10.73;;;6.25;;
70301;SDS011;57706;56.326;43.882;2022-10-16T13:29:00;13.15;;;5.80;;
70301;SDS011;57706;56.326;43.882;2022-10-16T13:31:27;17.52;;;6.47;;
70301;SDS011;57706;56.326;43.882;2022-10-16T13:33:55;14.98;;;6.07;;
70301;SDS011;57706;56.326;43.882;2022-10-16T13:36:34;13.90;;;6.75;;
70301;SDS011;57706;56.326;43.882;2022-10-16T13:39:15;11.63;;;6.05;;
70301;SDS011;57706;56.326;43.882;2022-10-16T13:44:28;12.65;;;6.97;;
70301;SDS011;57706;56.326;43.882;2022-10-16T13:47:01;26.48;;;8.48;;
70301;SDS011;57706;56.326;43.882;2022-10-16T13:49:28;17.77;;;7.70;;
70301;SDS011;57706;56.326;43.882;2022-10-16T13:51:58;21.73;;;7.90;;
70301;SDS011;57706;56.326;43.882;2022-10-16T13:54:25;20.13;;;7.13;;
70301;SDS011;57706;56.326;43.882;2022-10-16T13:56:54;20.98;;;6.93;;
70301;SDS011;57706;56.326;43.882;2022-10-16T13:59:38;14.18;;;7.25;;
70301;SDS011;57706;56.326;43.882;2022-10-16T14:02:08;18.77;;;6.88;;
70301;SDS011;57706;56.326;43.882;2022-10-16T14:05:07;11.40;;;5.88;;
70301;SDS011;57706;56.326;43.882;2022-10-16T14:07:35;16.30;;;6.63;;
70301;SDS011;57706;56.326;43.882;2022-10-16T14:10:04;17.27;;;7.13;;
70301;SDS011;57706;56.326;43.882;2022-10-16T14:12:32;14.27;;;7.35;;
70301;SDS011;57706;56.326;43.882;2022-10-16T14:14:59;17.45;;;7.28;;
70301;SDS011;57706;56.326;43.882;2022-10-16T14:17:29;15.07;;;7.28;;
70301;SDS011;57706;56.326;43.882;2022-10-16T14:19:59;13.75;;;7.63;;
70301;SDS011;57706;56.326;43.882;2022-10-16T14:22:39;16.95;;;8.65;;
70301;SDS011;57706;56.326;43.882;2022-10-16T14:27:44;21.08;;;9.52;;
70301;SDS011;57706;56.326;43.882;2022-10-16T14:30:18;21.85;;;9.98;;
70301;SDS011;57706;56.326;43.882;2022-10-16T14:32:53;25.95;;;10.93;;
70301;SDS011;57706;56.326;43.882;2022-10-16T14:35:31;27.17;;;10.68;;
70301;SDS011;57706;56.326;43.882;2022-10-16T14:37:59;25.00;;;9.80;;
70301;SDS011;57706;56.326;43.882;2022-10-16T14:40:28;28.08;;;11.15;;
70301;SDS011;57706;56.326;43.882;2022-10-16T14:43:04;22.83;;;11.20;;
70301;SDS011;57706;56.326;43.882;2022-10-16T14:45:31;21.70;;;11.48;;
70301;SDS011;57706;56.326;43.882;2022-10-16T14:48:04;25.30;;;11.65;;
70301;SDS011;57706;56.326;43.882;2022-10-16T14:50:40;35.83;;;12.73;;
70301;SDS011;57706;56.326;43.882;2022-10-16T14:53:11;27.08;;;14.02;;
70301;SDS011;57706;56.326;43.882;2022-10-16T14:55:38;27.63;;;13.77;;
70301;SDS011;57706;56.326;43.882;2022-10-16T14:58:08;37.30;;;13.55;;
70301;SDS011;57706;56.326;43.882;2022-10-16T15:00:40;34.60;;;14.15;;
70301;SDS011;57706;56.326;43.882;2022-10-16T15:03:06;32.25;;;13.98;;
70301;SDS011;57706;56.326;43.882;2022-10-16T15:05:32;26.75;;;12.82;;
70301;SDS011;57706;56.326;43.882;2022-10-16T15:07:58;33.58;;;13.75;;
70301;SDS011;57706;56.326;43.882;2022-10-16T15:10:24;28.00;;;13.98;;
70301;SDS011;57706;56.326;43.882;2022-10-16T15:12:53;30.75;;;13.90;;
70301;SDS011;57706;56.326;43.882;2022-10-16T15:15:38;33.42;;;12.52;;
70301;SDS011;57706;56.326;43.882;2022-10-16T15:18:08;27.63;;;13.25;;
70301;SDS011;57706;56.326;43.882;2022-10-16T15:20:34;28.40;;;12.50;;
70301;SDS011;57706;56.326;43.882;2022-10-16T15:23:02;25.92;;;11.25;;
70301;SDS011;57706;56.326;43.882;2022-10-16T15:27:58;22.50;;;11.00;;
70301;SDS011;57706;56.326;43.882;2022-10-16T15:30:25;21.40;;;11.70;;
70301;SDS011;57706;56.326;43.882;2022-10-16T15:32:51;24.95;;;11.15;;
70301;SDS011;57706;56.326;43.882;2022-10-16T15:35:17;31.90;;;12.52;;
70301;SDS011;57706;56.326;43.882;2022-10-16T15:37:43;27.50;;;12.98;;
70301;SDS011;57706;56.326;43.882;2022-10-16T15:40:10;28.73;;;12.38;;
70301;SDS011;57706;56.326;43.882;2022-10-16T15:42:36;27.98;;;13.52;;
70301;SDS011;57706;56.326;43.882;2022-10-16T15:45:02;27.42;;;13.27;;
70301;SDS011;57706;56.326;43.882;2022-10-16T15:47:29;24.38;;;12.93;;
70301;SDS011;57706;56.326;43.882;2022-10-16T15:49:55;23.17;;;12.70;;
70301;SDS011;57706;56.326;43.882;2022-10-16T15:52:21;22.77;;;13.30;;
70301;SDS011;57706;56.326;43.882;2022-10-16T15:54:46;31.42;;;15.32;;
70301;SDS011;57706;56.326;43.882;2022-10-16T15:57:31;20.00;;;12.30;;
70301;SDS011;57706;56.326;43.882;2022-10-16T15:59:58;20.17;;;10.02;;
70301;SDS011;57706;56.326;43.882;2022-10-16T16:02:23;20.85;;;10.30;;
70301;SDS011;57706;56.326;43.882;2022-10-16T16:04:49;18.50;;;9.60;;
70301;SDS011;57706;56.326;43.882;2022-10-16T16:07:15;19.83;;;9.60;;
70301;SDS011;57706;56.326;43.882;2022-10-16T16:09:41;18.60;;;9.27;;
70301;SDS011;57706;56.326;43.882;2022-10-16T16:12:07;16.08;;;8.70;;
70301;SDS011;57706;56.326;43.882;2022-10-16T16:14:32;20.05;;;9.43;;
70301;SDS011;57706;56.326;43.882;2022-10-16T16:16:58;20.13;;;9.25;;
70301;SDS011;57706;56.326;43.882;2022-10-16T16:19:24;21.80;;;9.10;;
70301;SDS011;57706;56.326;43.882;2022-10-16T16:21:50;19.10;;;8.57;;
70301;SDS011;57706;56.326;43.882;2022-10-16T16:24:16;19.52;;;8.20;;
70301;SDS011;57706;56.326;43.882;2022-10-16T16:26:42;19.73;;;8.13;;
70301;SDS011;57706;56.326;43.882;2022-10-16T16:29:14;19.20;;;9.02;;
70301;SDS011;57706;56.326;43.882;2022-10-16T16:31:41;16.58;;;8.65;;
70301;SDS011;57706;56.326;43.882;2022-10-16T16:34:26;16.88;;;8.70;;
70301;SDS011;57706;56.326;43.882;2022-10-16T16:36:53;15.98;;;7.25;;
70301;SDS011;57706;56.326;43.882;2022-10-16T16:39:20;17.52;;;8.15;;
70301;SDS011;57706;56.326;43.882;2022-10-16T16:41:46;23.08;;;9.32;;
70301;SDS011;57706;56.326;43.882;2022-10-16T16:44:13;23.35;;;9.25;;